Time,TemperatureF,DewpointF,PressureIn,WindDirection,WindDirectionDegrees,WindSpeedMPH,WindSpeedGustMPH,Humidity,HourlyPrecipIn,Conditions,Clouds,dailyrainin,SoftwareType,DateUTC
2013-03-20 00:03:00,69.0,66.0,29.97,NW,313,5.0,9.0,91,0.00,,,0.38,,2013-03-20 04:03:00,
2013-03-20 00:12:00,69.0,66.0,29.97,NW,313,5.0,9.0,91,0.00,,,0.38,,2013-03-20 04:12:00,
2013-03-20 00:23:00,69.0,66.0,29.96,NNW,327,6.0,9.0,90,0.00,,,0.38,,2013-03-20 04:23:00,
2013-03-20 00:32:00,70.0,67.0,29.96,NNW,338,5.0,10.0,91,0.00,,,0.38,,2013-03-20 04:32:00,
2013-03-20 00:43:00,70.0,67.0,29.96,NNW,338,5.0,10.0,91,0.00,,,0.38,,2013-03-20 04:43:00,
2013-03-20 00:53:00,69.0,66.0,29.95,NW,308,7.0,10.0,91,0.00,,,0.38,,2013-03-20 04:53:00,
2013-03-20 01:03:00,70.0,67.0,29.95,NNW,344,8.0,12.0,91,0.00,,,0.38,,2013-03-20 05:03:00,
2013-03-20 01:12:00,70.0,68.0,29.95,NNW,338,6.0,12.0,92,0.00,,,0.38,,2013-03-20 05:12:00,
2013-03-20 01:23:00,70.0,68.0,29.95,NNW,338,6.0,12.0,92,0.00,,,0.38,,2013-03-20 05:23:00,
2013-03-20 01:32:00,69.0,67.0,29.95,North,352,4.0,10.0,92,0.00,,,0.38,,2013-03-20 05:32:00,
2013-03-20 01:42:00,69.0,67.0,29.95,North,352,4.0,10.0,92,0.00,,,0.38,,2013-03-20 05:42:00,
2013-03-20 01:53:00,69.0,67.0,29.94,North,7,6.0,11.0,93,0.00,,,0.38,,2013-03-20 05:53:00,
2013-03-20 02:02:00,69.0,67.0,29.94,NE,39,7.0,10.0,93,0.00,,,0.38,,2013-03-20 06:02:00,
2013-03-20 02:12:00,69.0,67.0,29.94,NE,39,7.0,10.0,93,0.00,,,0.38,,2013-03-20 06:12:00,
2013-03-20 02:22:00,69.0,67.0,29.93,NNW,347,5.0,10.0,93,0.00,,,0.38,,2013-03-20 06:22:00,
2013-03-20 02:32:00,69.0,67.0,29.93,NNW,333,5.0,12.0,93,0.00,,,0.38,,2013-03-20 06:32:00,
2013-03-20 02:42:00,69.0,67.0,29.93,NNW,333,5.0,12.0,93,0.00,,,0.38,,2013-03-20 06:42:00,
2013-03-20 02:53:00,69.0,67.0,29.93,NNW,329,7.0,11.0,93,0.00,,,0.38,,2013-03-20 06:53:00,
2013-03-20 03:02:00,69.0,67.0,29.92,NNW,338,7.0,12.0,93,0.00,,,0.38,,2013-03-20 07:02:00,
2013-03-20 03:12:00,69.0,67.0,29.92,NNW,338,7.0,12.0,93,0.00,,,0.38,,2013-03-20 07:12:00,
2013-03-20 03:22:00,69.0,67.0,29.92,NNE,24,8.0,13.0,93,0.00,,,0.38,,2013-03-20 07:22:00,
2013-03-20 03:32:00,69.0,67.0,29.92,WNW,293,7.0,10.0,93,0.00,,,0.38,,2013-03-20 07:32:00,
2013-03-20 03:42:00,69.0,67.0,29.92,WNW,293,7.0,10.0,93,0.00,,,0.38,,2013-03-20 07:42:00,
2013-03-20 03:52:00,69.0,67.0,29.91,NNW,338,8.0,11.0,93,0.00,,,0.38,,2013-03-20 07:52:00,
2013-03-20 04:02:00,69.0,67.0,29.91,North,349,5.0,10.0,93,0.00,,,0.38,,2013-03-20 08:02:00,
2013-03-20 04:12:00,69.0,67.0,29.91,North,349,5.0,10.0,93,0.00,,,0.38,,2013-03-20 08:12:00,
2013-03-20 04:22:00,69.0,67.0,29.91,NNW,329,6.0,11.0,93,0.00,,,0.38,,2013-03-20 08:22:00,
2013-03-20 04:32:00,69.0,67.0,29.91,NW,313,6.0,11.0,93,0.00,,,0.38,,2013-03-20 08:32:00,
2013-03-20 04:42:00,69.0,67.0,29.91,NW,313,6.0,11.0,93,0.00,,,0.38,,2013-03-20 08:42:00,
2013-03-20 04:52:00,69.0,67.0,29.90,North,353,6.0,8.0,94,0.00,,,0.33,,2013-03-20 08:52:00,
2013-03-20 05:02:00,69.0,67.0,29.90,North,357,5.0,7.0,94,0.00,,,0.33,,2013-03-20 09:02:00,
2013-03-20 05:12:00,69.0,67.0,29.90,North,357,5.0,7.0,94,0.00,,,0.33,,2013-03-20 09:12:00,
2013-03-20 05:22:00,69.0,67.0,29.90,NNW,342,9.0,11.0,92,0.00,,,0.33,,2013-03-20 09:22:00,
2013-03-20 05:33:00,69.0,67.0,29.90,NE,35,8.0,12.0,92,0.00,,,0.33,,2013-03-20 09:33:00,
2013-03-20 05:43:00,69.0,67.0,29.90,NE,35,8.0,12.0,92,0.00,,,0.33,,2013-03-20 09:43:00,
2013-03-20 05:53:00,69.0,66.0,29.91,NE,37,10.0,14.0,91,0.00,,,0.21,,2013-03-20 09:53:00,
2013-03-20 06:03:00,69.0,66.0,29.91,NE,44,9.0,12.0,91,0.00,,,0.21,,2013-03-20 10:03:00,
2013-03-20 06:13:00,69.0,66.0,29.91,NE,44,9.0,12.0,91,0.00,,,0.21,,2013-03-20 10:13:00,
2013-03-20 06:23:00,69.0,66.0,29.92,NE,34,6.0,9.0,91,0.00,,,0.21,,2013-03-20 10:23:00,
2013-03-20 06:33:00,69.0,66.0,29.92,NE,40,6.0,10.0,91,0.00,,,0.21,,2013-03-20 10:33:00,
2013-03-20 06:43:00,69.0,66.0,29.92,NE,40,6.0,10.0,91,0.00,,,0.21,,2013-03-20 10:43:00,
2013-03-20 06:53:00,69.0,66.0,29.92,NNE,30,6.0,8.0,91,0.00,,,0.16,,2013-03-20 10:53:00,
2013-03-20 07:03:00,69.0,66.0,29.93,NE,49,10.0,12.0,91,0.00,,,0.16,,2013-03-20 11:03:00,
2013-03-20 07:12:00,69.0,66.0,29.93,NE,49,10.0,12.0,91,0.00,,,0.16,,2013-03-20 11:12:00,
2013-03-20 07:22:00,69.0,67.0,29.93,East,94,6.0,8.0,92,0.00,,,0.16,,2013-03-20 11:22:00,
2013-03-20 07:32:00,69.0,67.0,29.93,ESE,105,7.0,12.0,92,0.00,,,0.16,,2013-03-20 11:32:00,
2013-03-20 07:42:00,69.0,67.0,29.93,ESE,105,7.0,12.0,92,0.00,,,0.16,,2013-03-20 11:42:00,
2013-03-20 07:52:00,69.0,67.0,29.93,ESE,103,7.0,9.0,92,0.00,,,0.06,,2013-03-20 11:52:00,
2013-03-20 08:02:00,69.0,67.0,29.93,East,90,6.0,9.0,92,0.00,,,0.06,,2013-03-20 12:02:00,
2013-03-20 08:12:00,69.0,67.0,29.93,East,90,6.0,9.0,92,0.00,,,0.06,,2013-03-20 12:12:00,
2013-03-20 08:22:00,70.0,67.0,29.93,ENE,66,2.0,8.0,91,0.00,,,0.06,,2013-03-20 12:22:00,
2013-03-20 08:32:00,70.0,67.0,29.94,ENE,76,1.0,6.0,91,0.00,,,0.06,,2013-03-20 12:32:00,
2013-03-20 08:42:00,70.0,67.0,29.94,ENE,76,1.0,6.0,91,0.00,,,0.06,,2013-03-20 12:42:00,
2013-03-20 08:52:00,71.0,67.0,29.95,ENE,65,3.0,5.0,88,0.00,,,0.00,,2013-03-20 12:52:00,
2013-03-20 09:03:00,71.0,68.0,29.95,NE,53,3.0,6.0,89,0.00,,,0.00,,2013-03-20 13:03:00,
2013-03-20 09:12:00,71.0,68.0,29.95,NE,53,3.0,6.0,89,0.00,,,0.00,,2013-03-20 13:12:00,
2013-03-20 09:22:00,71.0,67.0,29.96,ENE,61,6.0,9.0,87,0.00,,,0.00,,2013-03-20 13:22:00,
2013-03-20 09:32:00,71.0,67.0,29.96,NE,53,6.0,8.0,87,0.00,,,0.00,,2013-03-20 13:32:00,
2013-03-20 09:42:00,71.0,67.0,29.96,NE,53,6.0,8.0,87,0.00,,,0.00,,2013-03-20 13:42:00,
2013-03-20 09:53:00,72.0,68.0,29.97,NE,43,3.0,5.0,86,0.00,,,0.00,,2013-03-20 13:53:00,
2013-03-20 10:03:00,72.0,68.0,29.97,North,351,6.0,7.0,87,0.00,,,0.00,,2013-03-20 14:03:00,
2013-03-20 10:12:00,72.0,68.0,29.97,North,351,6.0,7.0,87,0.00,,,0.00,,2013-03-20 14:12:00,
2013-03-20 10:23:00,72.0,68.0,29.97,ENE,66,4.0,7.0,86,0.00,,,0.00,,2013-03-20 14:23:00,
2013-03-20 10:33:00,72.0,68.0,29.98,NE,36,4.0,5.0,86,0.00,,,0.00,,2013-03-20 14:33:00,
2013-03-20 10:42:00,72.0,68.0,29.98,NE,36,4.0,5.0,86,0.00,,,0.00,,2013-03-20 14:42:00,
2013-03-20 10:53:00,72.0,67.0,29.98,NNW,343,4.0,7.0,85,0.00,,,0.00,,2013-03-20 14:53:00,
2013-03-20 11:02:00,72.0,67.0,29.98,North,7,5.0,8.0,85,0.00,,,0.00,,2013-03-20 15:02:00,
2013-03-20 11:12:00,73.0,68.0,29.97,NNE,24,5.0,7.0,84,0.00,,,0.00,,2013-03-20 15:12:00,
2013-03-20 11:22:00,73.0,68.0,29.97,NNE,24,5.0,7.0,84,0.00,,,0.00,,2013-03-20 15:22:00,
2013-03-20 11:33:00,73.0,68.0,29.98,NNE,33,5.0,7.0,84,0.00,,,0.00,,2013-03-20 15:33:00,
2013-03-20 11:43:00,73.0,68.0,29.98,NNE,33,5.0,7.0,84,0.00,,,0.00,,2013-03-20 15:43:00,
2013-03-20 11:53:00,73.0,68.0,29.98,NE,34,5.0,8.0,84,0.00,,,0.00,,2013-03-20 15:53:00,
2013-03-20 12:03:00,73.0,68.0,29.98,NE,43,3.0,7.0,84,0.00,,,0.00,,2013-03-20 16:03:00,
2013-03-20 12:13:00,73.0,68.0,29.98,NE,43,3.0,7.0,84,0.00,,,0.00,,2013-03-20 16:13:00,
2013-03-20 12:23:00,74.0,69.0,29.97,ENE,75,6.0,9.0,84,0.00,,,0.00,,2013-03-20 16:23:00,
2013-03-20 12:33:00,74.0,69.0,29.97,NE,55,6.0,9.0,84,0.00,,,0.00,,2013-03-20 16:33:00,
2013-03-20 12:43:00,74.0,69.0,29.97,NE,55,6.0,9.0,84,0.00,,,0.00,,2013-03-20 16:43:00,
2013-03-20 12:53:00,74.0,69.0,29.95,ENE,75,2.0,6.0,84,0.00,,,0.00,,2013-03-20 16:53:00,
2013-03-20 13:03:00,74.0,68.0,29.95,ENE,62,2.0,4.0,83,0.00,,,0.00,,2013-03-20 17:03:00,
2013-03-20 13:12:00,74.0,68.0,29.95,ENE,62,2.0,4.0,83,0.00,,,0.00,,2013-03-20 17:12:00,
2013-03-20 13:22:00,75.0,69.0,29.94,East,92,2.0,5.0,82,0.00,,,0.00,,2013-03-20 17:22:00,
2013-03-20 13:32:00,75.0,69.0,29.93,East,80,2.0,4.0,82,0.00,,,0.00,,2013-03-20 17:32:00,
2013-03-20 13:42:00,75.0,69.0,29.93,East,80,2.0,4.0,82,0.00,,,0.00,,2013-03-20 17:42:00,
2013-03-20 13:53:00,75.0,69.0,29.91,SSE,151,6.0,7.0,82,0.00,,,0.00,,2013-03-20 17:53:00,
2013-03-20 14:02:00,75.0,69.0,29.92,SE,142,4.0,6.0,82,0.00,,,0.00,,2013-03-20 18:02:00,
2013-03-20 14:12:00,75.0,69.0,29.92,SE,142,4.0,6.0,82,0.00,,,0.00,,2013-03-20 18:12:00,
2013-03-20 14:22:00,76.0,69.0,29.91,SE,142,2.0,6.0,80,0.00,,,0.00,,2013-03-20 18:22:00,
2013-03-20 14:33:00,77.0,70.0,29.91,SW,217,2.0,5.0,79,0.00,,,0.00,,2013-03-20 18:33:00,
2013-03-20 14:42:00,77.0,70.0,29.91,SW,217,2.0,5.0,79,0.00,,,0.00,,2013-03-20 18:42:00,
2013-03-20 14:53:00,77.0,70.0,29.90,ESE,113,1.0,5.0,79,0.00,,,0.00,,2013-03-20 18:53:00,
2013-03-20 15:02:00,77.0,70.0,29.90,ESE,106,4.0,5.0,78,0.00,,,0.00,,2013-03-20 19:02:00,
2013-03-20 15:12:00,77.0,70.0,29.90,ESE,106,4.0,5.0,78,0.00,,,0.00,,2013-03-20 19:12:00,
2013-03-20 15:22:00,78.0,71.0,29.88,SSW,202,6.0,7.0,78,0.00,,,0.00,,2013-03-20 19:22:00,
2013-03-20 15:32:00,78.0,71.0,29.88,South,175,5.0,7.0,78,0.00,,,0.00,,2013-03-20 19:32:00,
2013-03-20 15:42:00,78.0,71.0,29.88,South,175,5.0,7.0,78,0.00,,,0.00,,2013-03-20 19:42:00,
2013-03-20 15:53:00,78.0,70.0,29.87,SSW,209,6.0,8.0,76,0.00,,,0.00,,2013-03-20 19:53:00,
2013-03-20 16:02:00,78.0,70.0,29.87,South,180,5.0,8.0,77,0.00,,,0.00,,2013-03-20 20:02:00,
2013-03-20 16:13:00,78.0,70.0,29.87,South,180,5.0,8.0,77,0.00,,,0.00,,2013-03-20 20:13:00,
2013-03-20 16:22:00,78.0,70.0,29.86,SW,224,6.0,8.0,77,0.00,,,0.00,,2013-03-20 20:22:00,
2013-03-20 16:32:00,78.0,71.0,29.86,WSW,247,6.0,9.0,79,0.00,,,0.00,,2013-03-20 20:32:00,
2013-03-20 16:42:00,78.0,71.0,29.86,WSW,247,6.0,9.0,79,0.00,,,0.00,,2013-03-20 20:42:00,
2013-03-20 16:53:00,77.0,70.0,29.85,West,261,7.0,13.0,80,0.00,,,0.00,,2013-03-20 20:53:00,
2013-03-20 17:02:00,76.0,69.0,29.85,WSW,238,10.0,12.0,80,0.00,,,0.00,,2013-03-20 21:02:00,
2013-03-20 17:12:00,76.0,69.0,29.85,WSW,238,10.0,12.0,80,0.00,,,0.00,,2013-03-20 21:12:00,
2013-03-20 17:22:00,76.0,70.0,29.84,WSW,254,11.0,15.0,82,0.00,,,0.00,,2013-03-20 21:22:00,
2013-03-20 17:33:00,76.0,70.0,29.85,SW,235,6.0,14.0,83,0.00,,,0.00,,2013-03-20 21:33:00,
2013-03-20 17:42:00,76.0,70.0,29.85,SW,235,6.0,14.0,83,0.00,,,0.00,,2013-03-20 21:42:00,
2013-03-20 17:53:00,75.0,70.0,29.84,WSW,246,11.0,14.0,84,0.00,,,0.00,,2013-03-20 21:53:00,
2013-03-20 18:03:00,76.0,71.0,29.84,WSW,255,7.0,14.0,84,0.00,,,0.00,,2013-03-20 22:03:00,
2013-03-20 18:13:00,76.0,71.0,29.84,WSW,255,7.0,14.0,84,0.00,,,0.00,,2013-03-20 22:13:00,
2013-03-20 18:23:00,76.0,71.0,29.83,WSW,240,7.0,12.0,84,0.00,,,0.00,,2013-03-20 22:23:00,
2013-03-20 18:33:00,75.0,70.0,29.83,WSW,254,5.0,12.0,85,0.00,,,0.00,,2013-03-20 22:33:00,
2013-03-20 18:42:00,75.0,70.0,29.83,WSW,254,5.0,12.0,85,0.00,,,0.00,,2013-03-20 22:42:00,
2013-03-20 18:53:00,75.0,70.0,29.83,West,274,7.0,14.0,84,0.00,,,0.00,,2013-03-20 22:53:00,
2013-03-20 19:02:00,75.0,70.0,29.84,West,267,6.0,15.0,84,0.00,,,0.00,,2013-03-20 23:02:00,
2013-03-20 19:12:00,75.0,70.0,29.84,West,267,6.0,15.0,84,0.00,,,0.00,,2013-03-20 23:12:00,
2013-03-20 19:23:00,74.0,69.0,29.84,West,265,6.0,10.0,85,0.00,,,0.00,,2013-03-20 23:23:00,
2013-03-20 19:32:00,74.0,69.0,29.85,WSW,258,5.0,10.0,85,0.00,,,0.00,,2013-03-20 23:32:00,
2013-03-20 19:42:00,74.0,69.0,29.85,WSW,258,5.0,10.0,85,0.00,,,0.00,,2013-03-20 23:42:00,
2013-03-20 19:53:00,73.0,69.0,29.86,NW,304,5.0,11.0,86,0.00,,,0.00,,2013-03-20 23:53:00,
2013-03-20 20:02:00,73.0,69.0,29.86,NW,308,6.0,15.0,87,0.00,,,0.00,,2013-03-21 00:02:00,
2013-03-20 20:12:00,73.0,69.0,29.86,NW,308,6.0,15.0,87,0.00,,,0.00,,2013-03-21 00:12:00,
2013-03-20 20:23:00,73.0,69.0,29.86,NW,308,4.0,12.0,87,0.00,,,0.00,,2013-03-21 00:23:00,
2013-03-20 20:33:00,73.0,69.0,29.87,NW,308,7.0,12.0,88,0.00,,,0.00,,2013-03-21 00:33:00,
2013-03-20 20:42:00,73.0,69.0,29.87,NW,308,7.0,12.0,88,0.00,,,0.00,,2013-03-21 00:42:00,
2013-03-20 20:53:00,72.0,69.0,29.88,NW,315,8.0,16.0,89,0.00,,,0.00,,2013-03-21 00:53:00,
2013-03-20 21:02:00,72.0,69.0,29.89,NW,325,10.0,14.0,90,0.00,,,0.00,,2013-03-21 01:02:00,
2013-03-20 21:12:00,72.0,69.0,29.89,NW,325,10.0,14.0,90,0.00,,,0.00,,2013-03-21 01:12:00,
2013-03-20 21:22:00,72.0,69.0,29.90,NNW,338,8.0,14.0,90,0.00,,,0.00,,2013-03-21 01:22:00,
2013-03-20 21:33:00,72.0,69.0,29.90,NW,321,7.0,13.0,90,0.00,,,0.00,,2013-03-21 01:33:00,
2013-03-20 21:42:00,72.0,69.0,29.90,NW,321,7.0,13.0,90,0.00,,,0.00,,2013-03-21 01:42:00,
2013-03-20 21:53:00,72.0,69.0,29.91,NW,317,7.0,11.0,90,0.00,,,0.00,,2013-03-21 01:53:00,
2013-03-20 22:02:00,72.0,69.0,29.92,North,353,6.0,11.0,90,0.00,,,0.00,,2013-03-21 02:02:00,
2013-03-20 22:12:00,72.0,69.0,29.92,North,353,6.0,11.0,90,0.00,,,0.00,,2013-03-21 02:12:00,
2013-03-20 22:22:00,72.0,69.0,29.94,NNW,342,8.0,16.0,90,0.00,,,0.00,,2013-03-21 02:22:00,
2013-03-20 22:33:00,72.0,69.0,29.95,NNE,21,8.0,18.0,90,0.00,,,0.00,,2013-03-21 02:33:00,
2013-03-20 22:42:00,72.0,69.0,29.95,NNE,21,8.0,18.0,90,0.00,,,0.00,,2013-03-21 02:42:00,
2013-03-20 22:52:00,72.0,69.0,29.95,NNE,21,8.0,18.0,90,0.00,,,0.00,,2013-03-21 02:52:00,
2013-03-20 23:02:00,72.0,68.0,29.96,NE,42,13.0,21.0,87,0.00,,,0.00,,2013-03-21 03:02:00,
2013-03-20 23:12:00,72.0,68.0,29.96,NE,42,13.0,21.0,87,0.00,,,0.00,,2013-03-21 03:12:00,
2013-03-20 23:22:00,72.0,66.0,29.94,NE,38,18.0,24.0,81,0.00,,,0.00,,2013-03-21 03:22:00,
2013-03-20 23:33:00,72.0,65.0,29.94,NE,39,10.0,28.0,78,0.00,,,0.00,,2013-03-21 03:33:00,
2013-03-20 23:43:00,72.0,65.0,29.94,NE,39,10.0,28.0,78,0.00,,,0.00,,2013-03-21 03:43:00,
2013-03-20 23:53:00,71.0,63.0,29.91,NW,315,8.0,23.0,77,0.00,,,0.00,,2013-03-21 03:53:00,